Time,TemperatureF,DewpointF,PressureIn,WindDirection,WindDirectionDegrees,WindSpeedMPH,WindSpeedGustMPH,Humidity,HourlyPrecipIn,Conditions,Clouds,dailyrainin,SoftwareType,DateUTC
2013-02-01 00:00:00,30.5,0.0,29.53,SSW,210,9.2,27.4,0,0.00,,---,0.00,VWS V14.00,2013-02-01 05:00:00,
2013-02-01 00:01:00,30.5,0.0,29.53,SW,236,7.5,27.4,0,0.00,,---,0.00,VWS V14.00,2013-02-01 05:01:00,
2013-02-01 00:02:00,19.3,0.0,30.05,NW,308,5.3,5.6,0,0.00,,---,0.00,VWS V14.00,2013-02-01 05:02:00,
2013-02-01 00:03:00,19.3,0.0,30.05,NW,323,2.9,5.6,0,0.00,,---,0.00,VWS V14.00,2013-02-01 05:03:00,
2013-02-01 00:04:00,19.4,0.0,30.05,NNW,330,5.0,5.6,0,0.00,,---,0.00,VWS V14.00,2013-02-01 05:04:00,
2013-02-01 00:05:00,19.4,0.0,30.05,North,359,0.0,9.1,0,0.00,,---,0.00,VWS V14.00,2013-02-01 05:05:00,
2013-02-01 00:06:00,30.6,0.0,29.53,WNW,287,9.5,19.9,0,0.00,,---,0.00,VWS V14.00,2013-02-01 05:06:00,
2013-02-01 00:07:00,19.4,0.0,30.05,North,359,0.0,9.1,0,0.00,,---,0.00,VWS V14.00,2013-02-01 05:07:00,
2013-02-01 00:11:00,30.7,0.0,29.53,SSW,205,9.5,23.2,0,0.00,,---,0.00,VWS V14.00,2013-02-01 05:11:00,
2013-02-01 00:16:00,30.4,0.0,29.53,West,267,11.8,20.9,0,0.00,,---,0.00,VWS V14.00,2013-02-01 05:16:00,
2013-02-01 00:21:00,30.6,0.0,29.53,SW,233,5.2,17.8,0,0.00,,---,0.00,VWS V14.00,2013-02-01 05:21:00,
2013-02-01 00:26:00,30.4,0.0,29.53,WSW,240,7.2,19.3,0,0.00,,---,0.00,VWS V14.00,2013-02-01 05:26:00,
2013-02-01 00:31:00,30.2,0.0,29.53,SW,217,8.8,17.1,0,0.00,,---,0.00,VWS V14.00,2013-02-01 05:31:00,
2013-02-01 00:36:00,30.2,0.0,29.54,WSW,238,7.5,18.5,0,0.00,,---,0.00,VWS V14.00,2013-02-01 05:36:00,
2013-02-01 00:41:00,30.2,0.0,29.54,WNW,285,7.8,23.7,0,0.00,,---,0.00,VWS V14.00,2013-02-01 05:41:00,
2013-02-01 00:46:00,30.1,0.0,29.54,West,266,0.0,20.8,0,0.00,,---,0.00,VWS V14.00,2013-02-01 05:46:00,
2013-02-01 00:51:00,30.0,0.0,29.54,SW,224,6.0,28.1,0,0.00,,---,0.00,VWS V14.00,2013-02-01 05:51:00,
2013-02-01 00:56:00,30.0,0.0,29.54,SW,228,10.7,22.2,0,0.00,,---,0.00,VWS V14.00,2013-02-01 05:56:00,
2013-02-01 01:01:00,30.0,0.0,29.54,SW,224,5.5,22.6,0,0.00,,---,0.00,VWS V14.00,2013-02-01 06:01:00,
2013-02-01 01:06:00,30.0,0.0,29.55,WSW,238,16.2,23.1,0,0.00,,---,0.00,VWS V14.00,2013-02-01 06:06:00,
2013-02-01 01:11:00,29.9,0.0,29.55,SW,228,8.8,23.5,0,0.00,,---,0.00,VWS V14.00,2013-02-01 06:11:00,
2013-02-01 01:16:00,29.9,0.0,29.55,SW,229,8.0,22.0,0,0.00,,---,0.00,VWS V14.00,2013-02-01 06:16:00,
2013-02-01 01:21:00,29.8,0.0,29.56,SW,222,13.6,20.8,0,0.00,,---,0.00,VWS V14.00,2013-02-01 06:21:00,
2013-02-01 01:26:00,29.8,0.0,29.56,WSW,252,15.3,26.2,0,0.00,,---,0.00,VWS V14.00,2013-02-01 06:26:00,
2013-02-01 01:31:00,29.7,0.0,29.56,West,278,7.0,19.8,0,0.00,,---,0.00,VWS V14.00,2013-02-01 06:31:00,
2013-02-01 01:36:00,29.7,0.0,29.56,SW,231,12.9,20.6,0,0.00,,---,0.00,VWS V14.00,2013-02-01 06:36:00,
2013-02-01 01:41:00,29.7,0.0,29.56,SW,233,9.4,23.1,0,0.00,,---,0.00,VWS V14.00,2013-02-01 06:41:00,
2013-02-01 01:46:00,29.5,0.0,29.56,SSW,210,3.4,28.2,0,0.00,,---,0.00,VWS V14.00,2013-02-01 06:46:00,
2013-02-01 01:51:00,29.5,0.0,29.57,WSW,240,11.2,18.8,0,0.00,,---,0.00,VWS V14.00,2013-02-01 06:51:00,
2013-02-01 01:56:00,29.5,0.0,29.57,SW,217,11.2,23.5,0,0.00,,---,0.00,VWS V14.00,2013-02-01 06:56:00,
2013-02-01 02:01:00,29.4,0.0,29.57,SSW,212,7.4,19.3,0,0.00,,---,0.00,VWS V14.00,2013-02-01 07:01:00,
2013-02-01 02:06:00,29.4,0.0,29.57,SW,235,0.0,16.2,0,0.00,,---,0.00,VWS V14.00,2013-02-01 07:06:00,
2013-02-01 02:11:00,29.3,0.0,29.57,WNW,283,9.4,22.1,0,0.00,,---,0.00,VWS V14.00,2013-02-01 07:11:00,
2013-02-01 02:16:00,29.1,0.0,29.57,SW,224,8.1,18.1,0,0.00,,---,0.00,VWS V14.00,2013-02-01 07:16:00,
2013-02-01 02:21:00,29.2,0.0,29.58,SW,221,6.6,24.8,0,0.00,,---,0.00,VWS V14.00,2013-02-01 07:21:00,
2013-02-01 02:26:00,29.1,0.0,29.57,SSW,208,13.5,22.9,0,0.00,,---,0.00,VWS V14.00,2013-02-01 07:26:00,
2013-02-01 02:31:00,29.0,0.0,29.58,SSW,210,10.4,26.0,0,0.00,,---,0.00,VWS V14.00,2013-02-01 07:31:00,
2013-02-01 02:36:00,29.0,0.0,29.58,WSW,249,11.2,22.9,0,0.00,,---,0.00,VWS V14.00,2013-02-01 07:36:00,
2013-02-01 02:41:00,29.0,0.0,29.58,SSW,207,12.9,23.2,0,0.00,,---,0.00,VWS V14.00,2013-02-01 07:41:00,
2013-02-01 02:46:00,28.8,0.0,29.58,WSW,257,4.9,21.3,0,0.00,,---,0.00,VWS V14.00,2013-02-01 07:46:00,
2013-02-01 02:51:00,28.8,0.0,29.58,West,276,15.2,20.5,0,0.00,,---,0.00,VWS V14.00,2013-02-01 07:51:00,
2013-02-01 02:56:00,28.9,0.0,29.58,West,264,4.6,25.5,0,0.00,,---,0.00,VWS V14.00,2013-02-01 07:56:00,
2013-02-01 03:01:00,28.8,0.0,29.58,WSW,252,4.4,20.8,0,0.00,,---,0.00,VWS V14.00,2013-02-01 08:01:00,
2013-02-01 03:06:00,28.8,0.0,29.59,SSW,207,10.6,23.9,0,0.00,,---,0.00,VWS V14.00,2013-02-01 08:06:00,
2013-02-01 03:11:00,28.8,0.0,29.58,WSW,245,9.5,24.4,0,0.00,,---,0.00,VWS V14.00,2013-02-01 08:11:00,
2013-02-01 03:16:00,28.7,0.0,29.59,WSW,249,7.0,22.6,0,0.00,,---,0.00,VWS V14.00,2013-02-01 08:16:00,
2013-02-01 03:21:00,28.6,0.0,29.59,WSW,246,13.7,20.3,0,0.00,,---,0.00,VWS V14.00,2013-02-01 08:21:00,
2013-02-01 03:26:00,28.6,0.0,29.59,SW,231,8.4,19.6,0,0.00,,---,0.00,VWS V14.00,2013-02-01 08:26:00,
2013-02-01 03:31:00,28.6,0.0,29.59,West,273,19.8,19.8,0,0.00,,---,0.00,VWS V14.00,2013-02-01 08:31:00,
2013-02-01 03:36:00,28.5,0.0,29.59,SSW,204,11.9,22.4,0,0.00,,---,0.00,VWS V14.00,2013-02-01 08:36:00,
2013-02-01 03:41:00,28.3,0.0,29.59,SW,222,16.4,20.4,0,0.00,,---,0.00,VWS V14.00,2013-02-01 08:41:00,
2013-02-01 03:46:00,28.2,0.0,29.60,SW,219,13.4,18.8,0,0.00,,---,0.00,VWS V14.00,2013-02-01 08:46:00,
2013-02-01 03:51:00,28.1,0.0,29.59,West,276,6.7,26.3,0,0.00,,---,0.00,VWS V14.00,2013-02-01 08:51:00,
2013-02-01 03:56:00,28.1,0.0,29.60,SW,222,16.3,18.2,0,0.00,,---,0.00,VWS V14.00,2013-02-01 08:56:00,
2013-02-01 04:01:00,28.1,0.0,29.60,SW,225,15.2,23.1,0,0.00,,---,0.00,VWS V14.00,2013-02-01 09:01:00,
2013-02-01 04:06:00,27.9,0.0,29.60,SW,215,10.7,23.7,0,0.00,,---,0.00,VWS V14.00,2013-02-01 09:06:00,
2013-02-01 04:11:00,28.0,0.0,29.60,SSW,211,15.5,20.7,0,0.00,,---,0.00,VWS V14.00,2013-02-01 09:11:00,
2013-02-01 04:16:00,27.9,0.0,29.61,SW,222,13.2,18.2,0,0.00,,---,0.00,VWS V14.00,2013-02-01 09:16:00,
2013-02-01 04:21:00,27.8,0.0,29.61,WSW,253,8.9,19.8,0,0.00,,---,0.00,VWS V14.00,2013-02-01 09:21:00,
2013-02-01 04:26:00,27.9,0.0,29.61,WSW,248,11.1,17.5,0,0.00,,---,0.00,VWS V14.00,2013-02-01 09:26:00,
2013-02-01 04:31:00,27.8,0.0,29.61,SW,214,10.6,20.5,0,0.00,,---,0.00,VWS V14.00,2013-02-01 09:31:00,
2013-02-01 04:36:00,27.8,0.0,29.61,WSW,240,13.4,19.9,0,0.00,,---,0.00,VWS V14.00,2013-02-01 09:36:00,
2013-02-01 04:41:00,27.7,0.0,29.61,SW,218,6.1,22.6,0,0.00,,---,0.00,VWS V14.00,2013-02-01 09:41:00,
2013-02-01 04:46:00,27.7,0.0,29.62,WSW,238,16.2,18.6,0,0.00,,---,0.00,VWS V14.00,2013-02-01 09:46:00,
2013-02-01 04:51:00,27.8,0.0,29.61,SW,225,12.3,21.9,0,0.00,,---,0.00,VWS V14.00,2013-02-01 09:51:00,
2013-02-01 04:56:00,27.7,0.0,29.61,SW,231,12.2,20.6,0,0.00,,---,0.00,VWS V14.00,2013-02-01 09:56:00,
2013-02-01 05:01:00,27.6,0.0,29.61,SSW,212,15.2,19.9,0,0.00,,---,0.00,VWS V14.00,2013-02-01 10:01:00,
2013-02-01 05:06:00,27.4,0.0,29.61,SSW,204,12.8,20.3,0,0.00,,---,0.00,VWS V14.00,2013-02-01 10:06:00,
2013-02-01 05:11:00,27.4,0.0,29.62,WSW,248,14.2,18.6,0,0.00,,---,0.00,VWS V14.00,2013-02-01 10:11:00,
2013-02-01 05:16:00,27.4,0.0,29.62,SW,221,14.6,18.0,0,0.00,,---,0.00,VWS V14.00,2013-02-01 10:16:00,
2013-02-01 05:21:00,27.4,0.0,29.62,WSW,246,15.8,22.6,0,0.00,,---,0.00,VWS V14.00,2013-02-01 10:21:00,
2013-02-01 05:26:00,27.3,0.0,29.62,SW,229,7.5,21.9,0,0.00,,---,0.00,VWS V14.00,2013-02-01 10:26:00,
2013-02-01 05:31:00,27.2,0.0,29.62,WSW,246,9.8,19.7,0,0.00,,---,0.00,VWS V14.00,2013-02-01 10:31:00,
2013-02-01 05:36:00,27.3,0.0,29.62,SSW,207,8.2,20.3,0,0.00,,---,0.00,VWS V14.00,2013-02-01 10:36:00,
2013-02-01 05:41:00,27.1,0.0,29.62,SSW,210,8.9,22.6,0,0.00,,---,0.00,VWS V14.00,2013-02-01 10:41:00,
2013-02-01 05:46:00,27.1,0.0,29.62,SSW,211,10.5,22.9,0,0.00,,---,0.00,VWS V14.00,2013-02-01 10:46:00,
2013-02-01 05:51:00,27.0,0.0,29.62,WSW,257,8.7,19.0,0,0.00,,---,0.00,VWS V14.00,2013-02-01 10:51:00,
2013-02-01 05:55:00,26.9,0.0,29.63,WSW,240,15.0,18.6,0,0.00,,---,0.00,VWS V14.00,2013-02-01 10:55:00,
2013-02-01 06:00:00,27.1,0.0,29.63,SSW,193,10.1,20.9,0,0.00,,---,0.00,VWS V14.00,2013-02-01 11:00:00,
2013-02-01 06:05:00,27.0,0.0,29.63,West,269,0.0,22.6,0,0.00,,---,0.00,VWS V14.00,2013-02-01 11:05:00,
2013-02-01 06:10:00,27.0,0.0,29.63,WSW,238,7.4,18.2,0,0.00,,---,0.00,VWS V14.00,2013-02-01 11:10:00,
2013-02-01 06:15:00,26.9,0.0,29.64,WSW,255,7.3,19.7,0,0.00,,---,0.00,VWS V14.00,2013-02-01 11:15:00,
2013-02-01 06:20:00,26.8,0.0,29.64,SW,218,15.6,17.4,0,0.00,,---,0.00,VWS V14.00,2013-02-01 11:20:00,
2013-02-01 06:25:00,26.8,0.0,29.64,SW,232,10.5,19.7,0,0.00,,---,0.00,VWS V14.00,2013-02-01 11:25:00,
2013-02-01 06:30:00,26.9,0.0,29.64,SW,229,10.0,20.0,0,0.00,,---,0.00,VWS V14.00,2013-02-01 11:30:00,
2013-02-01 06:35:00,26.9,0.0,29.65,SW,233,9.9,23.0,0,0.00,,---,0.00,VWS V14.00,2013-02-01 11:35:00,
2013-02-01 06:40:00,26.8,0.0,29.65,SW,228,9.9,22.7,0,0.00,,---,0.00,VWS V14.00,2013-02-01 11:40:00,
2013-02-01 06:45:00,26.7,0.0,29.65,WSW,239,7.8,19.6,0,0.00,,---,0.00,VWS V14.00,2013-02-01 11:45:00,
2013-02-01 06:50:00,26.6,0.0,29.65,WSW,243,11.8,18.2,0,0.00,,---,0.00,VWS V14.00,2013-02-01 11:50:00,
2013-02-01 06:55:00,26.7,0.0,29.65,SSW,211,11.9,14.6,0,0.00,,---,0.00,VWS V14.00,2013-02-01 11:55:00,
2013-02-01 07:00:00,26.6,0.0,29.66,WSW,238,10.5,17.1,0,0.00,,---,0.00,VWS V14.00,2013-02-01 12:00:00,
2013-02-01 07:05:00,26.7,0.0,29.66,WNW,285,5.3,18.7,0,0.00,,---,0.00,VWS V14.00,2013-02-01 12:05:00,
2013-02-01 07:10:00,26.6,0.0,29.66,SW,226,8.6,16.8,0,0.00,,---,0.00,VWS V14.00,2013-02-01 12:10:00,
2013-02-01 07:15:00,26.7,0.0,29.66,WSW,250,6.5,15.1,0,0.00,,---,0.00,VWS V14.00,2013-02-01 12:15:00,
2013-02-01 07:20:00,26.7,0.0,29.67,NW,318,5.3,17.5,0,0.00,,---,0.00,VWS V14.00,2013-02-01 12:20:00,
2013-02-01 07:25:00,26.7,0.0,29.67,SSW,207,11.2,16.7,0,0.00,,---,0.00,VWS V14.00,2013-02-01 12:25:00,
2013-02-01 07:30:00,26.8,0.0,29.68,SW,226,17.6,17.6,0,0.00,,---,0.00,VWS V14.00,2013-02-01 12:30:00,
2013-02-01 07:35:00,26.9,0.0,29.68,SSW,200,10.9,17.6,0,0.00,,---,0.00,VWS V14.00,2013-02-01 12:35:00,
2013-02-01 07:40:00,27.0,0.0,29.68,WNW,300,4.7,21.5,0,0.00,,---,0.00,VWS V14.00,2013-02-01 12:40:00,
2013-02-01 07:45:00,27.1,0.0,29.68,SW,232,13.9,19.4,0,0.00,,---,0.00,VWS V14.00,2013-02-01 12:45:00,
2013-02-01 07:50:00,27.2,0.0,29.69,WSW,242,13.4,22.1,0,0.00,,---,0.00,VWS V14.00,2013-02-01 12:50:00,
2013-02-01 07:55:00,27.4,0.0,29.69,SW,231,18.0,20.8,0,0.00,,---,0.00,VWS V14.00,2013-02-01 12:55:00,
2013-02-01 08:00:00,27.4,0.0,29.69,SW,229,9.8,20.2,0,0.00,,---,0.00,VWS V14.00,2013-02-01 13:00:00,
2013-02-01 08:05:00,27.5,0.0,29.70,SW,217,6.4,22.7,0,0.00,,---,0.00,VWS V14.00,2013-02-01 13:05:00,
2013-02-01 08:10:00,27.7,0.0,29.70,SW,229,16.2,19.6,0,0.00,,---,0.00,VWS V14.00,2013-02-01 13:10:00,
2013-02-01 08:15:00,27.6,0.0,29.70,WSW,250,12.7,24.0,0,0.00,,---,0.00,VWS V14.00,2013-02-01 13:15:00,
2013-02-01 08:20:00,27.7,0.0,29.71,SW,233,9.7,17.8,0,0.00,,---,0.00,VWS V14.00,2013-02-01 13:20:00,
2013-02-01 08:25:00,27.8,0.0,29.71,WNW,290,6.9,20.8,0,0.00,,---,0.00,VWS V14.00,2013-02-01 13:25:00,
2013-02-01 08:30:00,27.9,0.0,29.71,SSW,212,17.1,20.6,0,0.00,,---,0.00,VWS V14.00,2013-02-01 13:30:00,
2013-02-01 08:35:00,28.1,0.0,29.71,SW,218,3.4,26.8,0,0.00,,---,0.00,VWS V14.00,2013-02-01 13:35:00,
2013-02-01 08:40:00,28.3,0.0,29.72,WSW,246,3.2,19.4,0,0.00,,---,0.00,VWS V14.00,2013-02-01 13:40:00,
2013-02-01 08:45:00,28.4,0.0,29.72,SW,224,6.3,17.1,0,0.00,,---,0.00,VWS V14.00,2013-02-01 13:45:00,
2013-02-01 08:50:00,28.3,0.0,29.72,WSW,245,9.1,18.3,0,0.00,,---,0.00,VWS V14.00,2013-02-01 13:50:00,
2013-02-01 08:55:00,28.6,0.0,29.73,SW,232,8.9,22.5,0,0.00,,---,0.00,VWS V14.00,2013-02-01 13:55:00,
2013-02-01 09:00:00,28.6,0.0,29.73,SSW,207,16.3,19.4,0,0.00,,---,0.00,VWS V14.00,2013-02-01 14:00:00,
2013-02-01 09:05:00,28.5,0.0,29.73,West,270,8.1,25.4,0,0.00,,---,0.00,VWS V14.00,2013-02-01 14:05:00,
2013-02-01 09:10:00,28.9,0.0,29.73,SW,222,12.6,19.9,0,0.00,,---,0.00,VWS V14.00,2013-02-01 14:10:00,
2013-02-01 09:15:00,29.2,0.0,29.74,West,271,4.4,28.2,0,0.00,,---,0.00,VWS V14.00,2013-02-01 14:15:00,
2013-02-01 09:20:00,29.7,0.0,29.74,WSW,250,7.5,23.0,0,0.00,,---,0.00,VWS V14.00,2013-02-01 14:20:00,
2013-02-01 09:25:00,29.5,0.0,29.74,WNW,283,10.9,19.9,0,0.00,,---,0.00,VWS V14.00,2013-02-01 14:25:00,
2013-02-01 09:30:00,29.6,0.0,29.74,SW,218,17.5,17.9,0,0.00,,---,0.00,VWS V14.00,2013-02-01 14:30:00,
2013-02-01 09:35:00,29.3,0.0,29.74,SW,215,5.8,27.6,0,0.00,,---,0.00,VWS V14.00,2013-02-01 14:35:00,
2013-02-01 09:40:00,30.2,0.0,29.75,West,264,7.1,21.7,0,0.00,,---,0.00,VWS V14.00,2013-02-01 14:40:00,
2013-02-01 09:45:00,30.7,0.0,29.75,SW,224,7.7,18.8,0,0.00,,---,0.00,VWS V14.00,2013-02-01 14:45:00,
2013-02-01 09:50:00,31.3,0.0,29.75,West,273,8.3,16.9,0,0.00,,---,0.00,VWS V14.00,2013-02-01 14:50:00,
2013-02-01 09:55:00,31.4,0.0,29.75,WNW,295,9.4,21.0,0,0.00,,---,0.00,VWS V14.00,2013-02-01 14:55:00,
2013-02-01 10:00:00,31.8,0.0,29.75,SW,221,11.1,26.1,0,0.00,,---,0.00,VWS V14.00,2013-02-01 15:00:00,
2013-02-01 10:05:00,32.4,0.0,29.75,West,280,6.5,23.1,0,0.00,,---,0.00,VWS V14.00,2013-02-01 15:05:00,
2013-02-01 10:10:00,32.2,0.0,29.76,SW,225,7.1,22.6,0,0.00,,---,0.00,VWS V14.00,2013-02-01 15:10:00,
2013-02-01 10:15:00,31.5,0.0,29.76,WSW,256,8.9,25.2,0,0.00,,---,0.00,VWS V14.00,2013-02-01 15:15:00,
2013-02-01 10:20:00,32.6,0.0,29.76,WNW,292,7.0,24.0,0,0.00,,---,0.00,VWS V14.00,2013-02-01 15:20:00,
2013-02-01 10:25:00,31.6,0.0,29.75,SW,219,14.5,14.5,0,0.00,,---,0.00,VWS V14.00,2013-02-01 15:25:00,
2013-02-01 10:30:00,31.4,0.0,29.75,SW,225,11.4,25.2,0,0.00,,---,0.00,VWS V14.00,2013-02-01 15:30:00,
2013-02-01 10:35:00,32.8,0.0,29.75,West,278,6.6,19.1,0,0.00,,---,0.00,VWS V14.00,2013-02-01 15:35:00,
2013-02-01 10:40:00,34.5,0.0,29.75,WSW,240,20.8,20.8,0,0.00,,---,0.00,VWS V14.00,2013-02-01 15:40:00,
2013-02-01 10:45:00,33.0,0.0,29.75,SW,226,7.2,22.1,0,0.00,,---,0.00,VWS V14.00,2013-02-01 15:45:00,
2013-02-01 10:50:00,34.1,0.0,29.75,WNW,292,4.6,21.8,0,0.00,,---,0.00,VWS V14.00,2013-02-01 15:50:00,
2013-02-01 10:55:00,33.6,0.0,29.75,SSW,198,7.9,21.5,0,0.00,,---,0.00,VWS V14.00,2013-02-01 15:55:00,
2013-02-01 11:00:00,33.0,0.0,29.75,WSW,248,12.2,18.6,0,0.00,,---,0.00,VWS V14.00,2013-02-01 16:00:00,
2013-02-01 11:05:00,33.0,0.0,29.75,WNW,295,18.0,21.1,0,0.00,,---,0.00,VWS V14.00,2013-02-01 16:05:00,
2013-02-01 11:10:00,33.0,0.0,29.75,WNW,283,9.4,25.9,0,0.00,,---,0.00,VWS V14.00,2013-02-01 16:10:00,
2013-02-01 11:15:00,33.1,0.0,29.74,SSW,200,5.9,23.2,0,0.00,,---,0.00,VWS V14.00,2013-02-01 16:15:00,
2013-02-01 11:20:00,33.3,0.0,29.74,West,280,8.9,17.7,0,0.00,,---,0.00,VWS V14.00,2013-02-01 16:20:00,
2013-02-01 11:25:00,33.1,0.0,29.74,WSW,248,7.6,23.2,0,0.00,,---,0.00,VWS V14.00,2013-02-01 16:25:00,
2013-02-01 11:30:00,33.8,0.0,29.74,WSW,256,4.6,21.9,0,0.00,,---,0.00,VWS V14.00,2013-02-01 16:30:00,
2013-02-01 11:35:00,33.9,0.0,29.74,WSW,245,8.1,16.3,0,0.00,,---,0.00,VWS V14.00,2013-02-01 16:35:00,
2013-02-01 11:40:00,34.1,0.0,29.74,WNW,283,22.4,22.4,0,0.00,,---,0.00,VWS V14.00,2013-02-01 16:40:00,
2013-02-01 11:45:00,32.7,0.0,29.73,NW,308,19.4,24.2,0,0.00,,---,0.00,VWS V14.00,2013-02-01 16:45:00,
2013-02-01 11:50:00,33.6,0.0,29.73,SW,236,7.1,26.0,0,0.00,,---,0.00,VWS V14.00,2013-02-01 16:50:00,
2013-02-01 11:55:00,34.2,0.0,29.72,WNW,283,8.5,19.1,0,0.00,,---,0.00,VWS V14.00,2013-02-01 16:55:00,
2013-02-01 12:00:00,33.5,0.0,29.73,WSW,245,4.5,20.1,0,0.00,,---,0.00,VWS V14.00,2013-02-01 17:00:00,
2013-02-01 12:05:00,34.4,0.0,29.73,West,271,14.4,22.4,0,0.00,,---,0.00,VWS V14.00,2013-02-01 17:05:00,
2013-02-01 12:10:00,34.9,0.0,29.73,NW,325,5.4,15.0,0,0.00,,---,0.00,VWS V14.00,2013-02-01 17:10:00,
2013-02-01 12:15:00,34.7,0.0,29.73,NW,319,2.6,19.9,0,0.00,,---,0.00,VWS V14.00,2013-02-01 17:15:00,
2013-02-01 12:20:00,34.8,0.0,29.73,West,278,13.1,17.3,0,0.00,,---,0.00,VWS V14.00,2013-02-01 17:20:00,
2013-02-01 12:25:00,34.3,0.0,29.73,SW,226,8.1,19.1,0,0.00,,---,0.00,VWS V14.00,2013-02-01 17:25:00,
2013-02-01 12:30:00,34.8,0.0,29.73,West,276,17.3,20.1,0,0.00,,---,0.00,VWS V14.00,2013-02-01 17:30:00,
2013-02-01 12:35:00,33.7,0.0,29.72,WSW,246,13.8,20.7,0,0.00,,---,0.00,VWS V14.00,2013-02-01 17:35:00,
2013-02-01 12:40:00,34.4,0.0,29.72,SW,235,5.9,26.9,0,0.00,,---,0.00,VWS V14.00,2013-02-01 17:40:00,
2013-02-01 12:45:00,34.3,0.0,29.72,West,274,4.7,18.8,0,0.00,,---,0.00,VWS V14.00,2013-02-01 17:45:00,
2013-02-01 12:50:00,33.8,0.0,29.72,NW,304,12.2,17.0,0,0.00,,---,0.00,VWS V14.00,2013-02-01 17:50:00,
2013-02-01 12:55:00,33.6,0.0,29.72,West,266,8.1,22.6,0,0.00,,---,0.00,VWS V14.00,2013-02-01 17:55:00,
2013-02-01 13:00:00,31.4,0.0,29.72,NW,322,9.1,24.9,0,0.00,,---,0.00,VWS V14.00,2013-02-01 18:00:00,
2013-02-01 13:05:00,31.2,0.0,29.71,West,271,13.6,24.5,0,0.00,,---,0.00,VWS V14.00,2013-02-01 18:05:00,
2013-02-01 13:10:00,31.2,0.0,29.71,SSW,193,6.7,25.6,0,0.00,,---,0.00,VWS V14.00,2013-02-01 18:10:00,
2013-02-01 13:15:00,33.2,0.0,29.71,West,281,16.0,22.2,0,0.00,,---,0.00,VWS V14.00,2013-02-01 18:15:00,
2013-02-01 13:20:00,33.5,0.0,29.71,WNW,295,6.1,22.5,0,0.00,,---,0.00,VWS V14.00,2013-02-01 18:20:00,
2013-02-01 13:25:00,33.9,0.0,29.71,West,273,5.6,19.6,0,0.00,,---,0.00,VWS V14.00,2013-02-01 18:25:00,
2013-02-01 13:30:00,33.9,0.0,29.71,NW,304,5.5,15.6,0,0.00,,---,0.00,VWS V14.00,2013-02-01 18:30:00,
2013-02-01 13:35:00,33.6,0.0,29.70,WNW,302,11.2,19.7,0,0.00,,---,0.00,VWS V14.00,2013-02-01 18:35:00,
2013-02-01 13:40:00,32.3,0.0,29.71,WNW,287,14.1,20.8,0,0.00,,---,0.00,VWS V14.00,2013-02-01 18:40:00,
2013-02-01 13:45:00,32.0,0.0,29.72,South,184,13.0,21.0,0,0.00,,---,0.00,VWS V14.00,2013-02-01 18:45:00,
2013-02-01 13:50:00,33.3,0.0,29.73,WSW,248,6.3,15.6,0,0.00,,---,0.00,VWS V14.00,2013-02-01 18:50:00,
2013-02-01 13:55:00,32.1,0.0,29.73,NW,325,7.0,16.2,0,0.00,,---,0.00,VWS V14.00,2013-02-01 18:55:00,
2013-02-01 14:00:00,32.7,0.0,29.73,West,276,13.7,16.0,0,0.00,,---,0.00,VWS V14.00,2013-02-01 19:00:00,
2013-02-01 14:05:00,32.7,0.0,29.73,NW,305,12.4,16.1,0,0.00,,---,0.00,VWS V14.00,2013-02-01 19:05:00,
2013-02-01 14:10:00,32.6,0.0,29.73,WNW,295,12.9,20.9,0,0.00,,---,0.00,VWS V14.00,2013-02-01 19:10:00,
2013-02-01 14:15:00,32.9,0.0,29.73,NW,304,9.9,18.3,0,0.00,,---,0.00,VWS V14.00,2013-02-01 19:15:00,
2013-02-01 14:20:00,33.0,0.0,29.73,NW,323,12.3,20.8,0,0.00,,---,0.00,VWS V14.00,2013-02-01 19:20:00,
2013-02-01 14:25:00,32.4,0.0,29.73,WNW,284,14.7,17.7,0,0.00,,---,0.00,VWS V14.00,2013-02-01 19:25:00,
2013-02-01 14:30:00,31.2,0.0,29.73,North,3,8.6,17.9,0,0.00,,---,0.00,VWS V14.00,2013-02-01 19:30:00,
2013-02-01 14:35:00,30.4,0.0,29.74,WNW,292,7.1,19.6,0,0.00,,---,0.00,VWS V14.00,2013-02-01 19:35:00,
2013-02-01 14:40:00,30.0,0.0,29.74,West,270,16.9,18.1,0,0.00,,---,0.00,VWS V14.00,2013-02-01 19:40:00,
2013-02-01 14:55:00,31.6,0.0,29.74,West,267,6.2,14.5,0,0.00,,---,0.00,VWS V14.00,2013-02-01 19:55:00,
2013-02-01 15:00:00,31.5,0.0,29.74,NW,312,8.1,14.0,0,48.38,,---,0.00,VWS V14.00,2013-02-01 20:00:00,
2013-02-01 15:05:00,32.0,0.0,29.75,West,278,8.0,16.1,0,48.38,,---,0.00,VWS V14.00,2013-02-01 20:05:00,
2013-02-01 15:10:00,31.5,0.0,29.75,WSW,238,7.0,13.7,0,48.38,,---,0.00,VWS V14.00,2013-02-01 20:10:00,
2013-02-01 15:15:00,31.5,0.0,29.75,WNW,283,3.4,12.1,0,0.00,,---,0.00,VWS V14.00,2013-02-01 20:15:00,
2013-02-01 15:20:00,31.9,0.0,29.76,WSW,257,3.3,12.1,0,0.00,,---,0.00,VWS V14.00,2013-02-01 20:20:00,
2013-02-01 15:25:00,32.4,0.0,29.76,WNW,297,4.6,10.0,0,0.00,,---,0.00,VWS V14.00,2013-02-01 20:25:00,
2013-02-01 15:33:00,30.4,0.0,29.77,WNW,285,7.8,18.3,0,0.00,,---,0.00,VWS V14.00,2013-02-01 20:33:00,
2013-02-01 15:38:00,30.0,0.0,29.77,WNW,301,8.8,20.1,0,48.38,,---,0.00,VWS V14.00,2013-02-01 20:38:00,
2013-02-01 16:59:00,28.1,0.0,29.82,NNW,332,6.6,14.5,0,48.38,,---,0.00,VWS V14.00,2013-02-01 21:59:00,
2013-02-01 17:04:00,28.0,0.0,29.83,WNW,292,7.0,17.6,0,48.38,,---,0.00,VWS V14.00,2013-02-01 22:04:00,
2013-02-01 17:09:00,27.8,0.0,29.83,West,263,5.7,20.0,0,48.38,,---,0.00,VWS V14.00,2013-02-01 22:09:00,
2013-02-01 17:14:00,27.6,0.0,29.84,WNW,284,3.3,16.5,0,0.00,,---,0.00,VWS V14.00,2013-02-01 22:14:00,
2013-02-01 17:19:00,27.5,0.0,29.84,WNW,290,12.2,18.0,0,0.00,,---,0.00,VWS V14.00,2013-02-01 22:19:00,
2013-02-01 17:24:00,27.3,0.0,29.84,West,277,11.6,13.4,0,0.00,,---,0.00,VWS V14.00,2013-02-01 22:24:00,
2013-02-01 17:29:00,27.2,0.0,29.85,NW,309,11.4,16.2,0,0.00,,---,0.00,VWS V14.00,2013-02-01 22:29:00,
2013-02-01 17:34:00,27.0,0.0,29.85,NNW,342,6.6,11.9,0,0.00,,---,0.00,VWS V14.00,2013-02-01 22:34:00,
2013-02-01 17:39:00,26.9,0.0,29.86,West,276,9.1,15.0,0,0.00,,---,0.00,VWS V14.00,2013-02-01 22:39:00,
2013-02-01 17:44:00,26.7,0.0,29.86,SSW,205,4.4,18.1,0,0.00,,---,0.00,VWS V14.00,2013-02-01 22:44:00,
2013-02-01 17:49:00,26.6,0.0,29.87,WNW,297,5.7,16.5,0,0.00,,---,0.00,VWS V14.00,2013-02-01 22:49:00,
2013-02-01 17:54:00,26.6,0.0,29.87,West,266,10.3,15.8,0,0.00,,---,0.00,VWS V14.00,2013-02-01 22:54:00,
2013-02-01 17:59:00,26.5,0.0,29.88,West,280,9.2,21.7,0,0.00,,---,0.00,VWS V14.00,2013-02-01 22:59:00,
2013-02-01 18:04:00,26.5,0.0,29.88,NW,326,9.9,16.5,0,0.00,,---,0.00,VWS V14.00,2013-02-01 23:04:00,
2013-02-01 18:09:00,26.5,0.0,29.89,WNW,290,7.1,17.3,0,0.00,,---,0.00,VWS V14.00,2013-02-01 23:09:00,
2013-02-01 18:14:00,26.4,0.0,29.89,WNW,290,13.8,18.1,0,0.00,,---,0.00,VWS V14.00,2013-02-01 23:14:00,
2013-02-01 18:19:00,26.3,0.0,29.90,WNW,284,0.0,21.1,0,0.00,,---,0.00,VWS V14.00,2013-02-01 23:19:00,
2013-02-01 18:24:00,26.0,0.0,29.90,NW,314,8.2,13.1,0,0.00,,---,0.00,VWS V14.00,2013-02-01 23:24:00,
2013-02-01 18:29:00,26.1,0.0,29.91,WNW,287,13.0,18.3,0,0.00,,---,0.00,VWS V14.00,2013-02-01 23:29:00,
2013-02-01 18:34:00,25.9,0.0,29.91,West,267,9.6,17.8,0,0.00,,---,0.00,VWS V14.00,2013-02-01 23:34:00,
2013-02-01 18:39:00,25.8,0.0,29.92,WNW,283,5.8,16.0,0,0.00,,---,0.00,VWS V14.00,2013-02-01 23:39:00,
2013-02-01 18:44:00,25.6,0.0,29.92,NW,304,10.9,17.1,0,0.00,,---,0.00,VWS V14.00,2013-02-01 23:44:00,
2013-02-01 18:49:00,25.6,0.0,29.92,NW,314,7.6,16.5,0,0.00,,---,0.00,VWS V14.00,2013-02-01 23:49:00,
2013-02-01 18:53:00,25.7,0.0,29.93,NW,314,7.6,13.6,0,0.00,,---,0.00,VWS V14.00,2013-02-01 23:53:00,
2013-02-01 18:59:00,25.2,0.0,29.93,West,277,5.0,12.4,0,0.00,,---,0.00,VWS V14.00,2013-02-01 23:59:00,
2013-02-01 19:03:00,25.0,0.0,29.94,West,271,4.3,12.4,0,0.00,,---,0.00,VWS V14.00,2013-02-02 00:03:00,
2013-02-01 19:08:00,24.9,0.0,29.94,WNW,301,11.2,19.1,0,0.00,,---,0.00,VWS V14.00,2013-02-02 00:08:00,
2013-02-01 19:13:00,24.7,0.0,29.94,West,280,0.0,19.1,0,0.00,,---,0.00,VWS V14.00,2013-02-02 00:13:00,
2013-02-01 19:18:00,24.6,0.0,29.95,West,260,5.6,18.1,0,0.00,,---,0.00,VWS V14.00,2013-02-02 00:18:00,
2013-02-01 19:23:00,24.5,0.0,29.95,West,269,7.3,15.9,0,0.00,,---,0.00,VWS V14.00,2013-02-02 00:23:00,
2013-02-01 19:28:00,24.4,0.0,29.95,WNW,285,11.6,19.1,0,0.00,,---,0.00,VWS V14.00,2013-02-02 00:28:00,
2013-02-01 19:33:00,24.3,0.0,29.96,NW,318,9.5,21.4,0,0.00,,---,0.00,VWS V14.00,2013-02-02 00:33:00,
2013-02-01 19:38:00,24.1,0.0,29.96,NW,319,8.0,22.6,0,0.00,,---,0.00,VWS V14.00,2013-02-02 00:38:00,
2013-02-01 19:43:00,24.0,0.0,29.96,West,260,5.9,22.9,0,0.00,,---,0.00,VWS V14.00,2013-02-02 00:43:00,
2013-02-01 19:48:00,24.0,0.0,29.96,NW,307,4.9,20.3,0,0.00,,---,0.00,VWS V14.00,2013-02-02 00:48:00,
2013-02-01 19:53:00,23.8,0.0,29.96,WNW,297,7.0,17.1,0,0.00,,---,0.00,VWS V14.00,2013-02-02 00:53:00,
2013-02-01 19:58:00,23.7,0.0,29.96,NW,325,7.1,17.0,0,0.00,,---,0.00,VWS V14.00,2013-02-02 00:58:00,
2013-02-01 20:03:00,23.6,0.0,29.97,NW,322,4.3,21.3,0,0.00,,---,0.00,VWS V14.00,2013-02-02 01:03:00,
2013-02-01 20:08:00,23.4,0.0,29.97,WNW,283,7.3,15.2,0,0.00,,---,0.00,VWS V14.00,2013-02-02 01:08:00,
2013-02-01 20:13:00,23.4,0.0,29.97,NNW,340,13.3,13.4,0,0.00,,---,0.00,VWS V14.00,2013-02-02 01:13:00,
2013-02-01 20:18:00,23.3,0.0,29.97,West,273,7.7,17.1,0,0.00,,---,0.00,VWS V14.00,2013-02-02 01:18:00,
2013-02-01 20:23:00,23.2,0.0,29.98,West,267,6.6,13.2,0,0.00,,---,0.00,VWS V14.00,2013-02-02 01:23:00,
2013-02-01 20:28:00,23.1,0.0,29.98,WNW,284,7.0,13.5,0,0.00,,---,0.00,VWS V14.00,2013-02-02 01:28:00,
2013-02-01 20:33:00,23.0,0.0,29.98,WNW,288,5.3,17.6,0,0.00,,---,0.00,VWS V14.00,2013-02-02 01:33:00,
2013-02-01 20:38:00,23.0,0.0,29.98,West,274,7.1,12.8,0,0.00,,---,0.00,VWS V14.00,2013-02-02 01:38:00,
2013-02-01 20:43:00,22.8,0.0,29.98,WNW,295,6.2,11.7,0,0.00,,---,0.00,VWS V14.00,2013-02-02 01:43:00,
2013-02-01 20:48:00,22.7,0.0,29.99,NW,314,7.0,11.4,0,0.00,,---,0.00,VWS V14.00,2013-02-02 01:48:00,
2013-02-01 20:53:00,22.7,0.0,29.99,West,263,2.0,11.0,0,0.00,,---,0.00,VWS V14.00,2013-02-02 01:53:00,
2013-02-01 20:58:00,22.7,0.0,29.99,WNW,300,6.6,14.8,0,0.00,,---,0.00,VWS V14.00,2013-02-02 01:58:00,
2013-02-01 21:03:00,22.6,0.0,29.99,WNW,290,4.6,14.4,0,0.00,,---,0.00,VWS V14.00,2013-02-02 02:03:00,
2013-02-01 21:08:00,22.5,0.0,29.99,NNW,339,6.0,12.6,0,0.00,,---,0.00,VWS V14.00,2013-02-02 02:08:00,
2013-02-01 21:13:00,22.4,0.0,30.00,WNW,302,5.1,10.9,0,0.00,,---,0.00,VWS V14.00,2013-02-02 02:13:00,
2013-02-01 21:18:00,22.3,0.0,30.00,NW,314,8.3,14.9,0,0.00,,---,0.00,VWS V14.00,2013-02-02 02:18:00,
2013-02-01 21:23:00,22.2,0.0,30.00,WNW,301,6.6,11.3,0,0.00,,---,0.00,VWS V14.00,2013-02-02 02:23:00,
2013-02-01 21:28:00,22.1,0.0,30.00,West,273,0.0,9.7,0,0.00,,---,0.00,VWS V14.00,2013-02-02 02:28:00,
2013-02-01 21:33:00,22.1,0.0,30.00,WNW,292,0.0,10.0,0,0.00,,---,0.00,VWS V14.00,2013-02-02 02:33:00,
2013-02-01 21:38:00,22.0,0.0,30.00,WNW,288,0.0,12.0,0,0.00,,---,0.00,VWS V14.00,2013-02-02 02:38:00,
2013-02-01 21:43:00,21.9,0.0,30.00,West,263,0.0,8.0,0,0.00,,---,0.00,VWS V14.00,2013-02-02 02:43:00,
2013-02-01 21:48:00,21.8,0.0,30.00,West,278,0.0,4.9,0,0.00,,---,0.00,VWS V14.00,2013-02-02 02:48:00,
2013-02-01 21:53:00,21.7,0.0,30.00,WNW,292,5.5,7.7,0,0.00,,---,0.00,VWS V14.00,2013-02-02 02:53:00,
2013-02-01 21:58:00,21.5,0.0,30.01,WNW,291,0.0,6.2,0,0.00,,---,0.00,VWS V14.00,2013-02-02 02:58:00,
2013-02-01 22:03:00,21.5,0.0,30.01,WNW,291,0.0,4.4,0,0.00,,---,0.00,VWS V14.00,2013-02-02 03:03:00,
2013-02-01 22:08:00,21.4,0.0,30.01,WNW,291,0.0,0.0,0,0.00,,---,0.00,VWS V14.00,2013-02-02 03:08:00,
2013-02-01 22:13:00,21.4,0.0,30.01,WNW,291,0.0,0.0,0,0.00,,---,0.00,VWS V14.00,2013-02-02 03:13:00,
2013-02-01 22:18:00,21.0,0.0,30.01,WNW,291,0.0,0.0,0,0.00,,---,0.00,VWS V14.00,2013-02-02 03:18:00,
2013-02-01 22:23:00,21.1,0.0,30.02,WNW,291,0.0,0.0,0,0.00,,---,0.00,VWS V14.00,2013-02-02 03:23:00,
2013-02-01 22:28:00,21.3,0.0,30.02,NNW,329,0.0,6.3,0,0.00,,---,0.00,VWS V14.00,2013-02-02 03:28:00,
2013-02-01 22:33:00,21.3,0.0,30.02,NW,307,6.3,8.0,0,0.00,,---,0.00,VWS V14.00,2013-02-02 03:33:00,
2013-02-01 22:38:00,21.2,0.0,30.02,NNW,329,7.5,8.5,0,0.00,,---,0.00,VWS V14.00,2013-02-02 03:38:00,
2013-02-01 22:43:00,20.9,0.0,30.02,WNW,284,4.7,9.2,0,0.00,,---,0.00,VWS V14.00,2013-02-02 03:43:00,
2013-02-01 22:48:00,20.9,0.0,30.02,NW,314,3.4,9.1,0,0.00,,---,0.00,VWS V14.00,2013-02-02 03:48:00,
2013-02-01 22:53:00,21.0,0.0,30.02,WNW,288,4.8,8.0,0,0.00,,---,0.00,VWS V14.00,2013-02-02 03:53:00,
2013-02-01 22:58:00,21.1,0.0,30.02,NW,314,3.0,11.0,0,0.00,,---,0.00,VWS V14.00,2013-02-02 03:58:00,
2013-02-01 23:03:00,21.1,0.0,30.02,WSW,246,3.2,9.5,0,0.00,,---,0.00,VWS V14.00,2013-02-02 04:03:00,
2013-02-01 23:08:00,20.9,0.0,30.03,WNW,283,0.0,8.5,0,0.00,,---,0.00,VWS V14.00,2013-02-02 04:08:00,
2013-02-01 23:13:00,20.7,0.0,30.03,NW,309,0.0,6.8,0,0.00,,---,0.00,VWS V14.00,2013-02-02 04:13:00,
2013-02-01 23:18:00,20.3,0.0,30.03,West,277,0.0,8.9,0,0.00,,---,0.00,VWS V14.00,2013-02-02 04:18:00,
2013-02-01 23:23:00,20.4,0.0,30.04,WNW,283,6.2,7.5,0,0.00,,---,0.00,VWS V14.00,2013-02-02 04:23:00,
2013-02-01 23:28:00,20.2,0.0,30.04,West,263,0.0,7.0,0,0.00,,---,0.00,VWS V14.00,2013-02-02 04:28:00,
2013-02-01 23:33:00,19.9,0.0,30.04,NNW,328,0.0,4.2,0,0.00,,---,0.00,VWS V14.00,2013-02-02 04:33:00,
2013-02-01 23:38:00,19.7,0.0,30.04,North,8,0.0,3.5,0,0.00,,---,0.00,VWS V14.00,2013-02-02 04:38:00,
2013-02-01 23:43:00,19.5,0.0,30.04,NNW,346,0.0,2.8,0,0.00,,---,0.00,VWS V14.00,2013-02-02 04:43:00,
2013-02-01 23:48:00,19.4,0.0,30.05,NNW,346,0.0,0.0,0,0.00,,---,0.00,VWS V14.00,2013-02-02 04:48:00,